createdAt,value
2017-12-29T00:01:08.934Z,1002.25
2017-12-29T00:02:30.914Z,1002.24
2017-12-29T00:03:53.051Z,1002.25
2017-12-29T00:05:14.945Z,1002.23
2017-12-29T00:06:37.196Z,1002.24
2017-12-29T00:07:58.857Z,1002.28
2017-12-29T00:09:20.194Z,1002.35
2017-12-29T00:10:42.205Z,1002.33
2017-12-29T00:12:03.955Z,1002.43
2017-12-29T00:13:26.196Z,1002.41
2017-12-29T00:14:48.129Z,1002.44
2017-12-29T00:16:10.065Z,1002.41
2017-12-29T00:17:31.773Z,1002.48
2017-12-29T00:18:53.766Z,1002.32
2017-12-29T00:20:15.875Z,1002.47
2017-12-29T00:21:38.084Z,1002.44
2017-12-29T00:22:59.429Z,1002.46
2017-12-29T00:24:21.345Z,1002.48
2017-12-29T00:25:43.217Z,1002.45
2017-12-29T00:27:05.363Z,1002.48
2017-12-29T00:28:27.484Z,1002.57
2017-12-29T00:29:49.094Z,1002.52
2017-12-29T00:31:10.684Z,1002.51
2017-12-29T00:32:32.887Z,1002.56
2017-12-29T00:33:54.757Z,1002.57
2017-12-29T00:35:16.517Z,1002.59
2017-12-29T00:36:38.654Z,1002.61
2017-12-29T00:38:00.256Z,1002.6
2017-12-29T00:39:22.134Z,1002.65
2017-12-29T00:40:44.366Z,1002.64
2017-12-29T00:42:06.615Z,1002.64
2017-12-29T00:43:28.264Z,1002.69
2017-12-29T00:44:50.127Z,1002.68
2017-12-29T00:46:12.200Z,1002.7
2017-12-29T00:47:34.144Z,1002.68
2017-12-29T00:48:56.105Z,1002.77
2017-12-29T00:50:17.473Z,1002.76
2017-12-29T00:51:39.339Z,1002.73
2017-12-29T00:53:00.766Z,1002.78
2017-12-29T00:54:22.899Z,1002.79
2017-12-29T00:55:44.781Z,1002.9
2017-12-29T00:57:06.453Z,1002.87
2017-12-29T00:58:27.575Z,1002.86
2017-12-29T00:59:49.899Z,1002.89
2017-12-29T01:01:11.548Z,1002.85
2017-12-29T01:02:33.697Z,1002.85
2017-12-29T01:03:55.149Z,1002.83
2017-12-29T01:05:16.484Z,1002.86
2017-12-29T01:06:37.909Z,1002.86
2017-12-29T01:07:59.495Z,1002.9
2017-12-29T01:09:21.616Z,1002.92
2017-12-29T01:10:43.481Z,1002.86
2017-12-29T01:12:05.323Z,1002.85
2017-12-29T01:13:26.935Z,1002.88
2017-12-29T01:14:48.892Z,1002.89
2017-12-29T01:16:10.826Z,1002.94
2017-12-29T01:17:32.963Z,1002.9
2017-12-29T01:18:54.810Z,1002.9
2017-12-29T01:20:16.936Z,1002.9
2017-12-29T01:21:39.154Z,1002.94
2017-12-29T01:23:01.034Z,1002.98
2017-12-29T01:24:22.658Z,1003.02
2017-12-29T01:25:44.877Z,1003.07
2017-12-29T01:27:07.088Z,1003.01
2017-12-29T01:28:28.935Z,1002.99
2017-12-29T01:29:50.951Z,1003.03
2017-12-29T01:31:13.075Z,1003.08
2017-12-29T01:32:34.936Z,1003.06
2017-12-29T01:33:57.156Z,1003.06
2017-12-29T01:35:19.282Z,1003.08
2017-12-29T01:36:40.351Z,1003.14
2017-12-29T01:38:01.944Z,1003.08
2017-12-29T01:39:23.574Z,1003.09
2017-12-29T01:40:45.703Z,1003.04
2017-12-29T01:42:07.549Z,1003.08
2017-12-29T01:43:29.161Z,1003.09
2017-12-29T01:44:51.067Z,1003.16
2017-12-29T01:46:13.195Z,1003.12
2017-12-29T01:47:35.135Z,1003.05
2017-12-29T01:48:56.537Z,1003.07
2017-12-29T01:50:18.424Z,1003.06
2017-12-29T01:51:40.020Z,1003.05
2017-12-29T01:53:01.874Z,1003.08
2017-12-29T01:54:24.117Z,1003.1
2017-12-29T01:55:45.567Z,1003.11
2017-12-29T01:57:07.414Z,1003.12
2017-12-29T01:58:29.062Z,1003.13
2017-12-29T01:59:50.915Z,1003.09
2017-12-29T02:01:13.010Z,1003.16
2017-12-29T02:02:35.155Z,1003.19
2017-12-29T02:03:57.264Z,1003.21
2017-12-29T02:05:18.864Z,1003.22
2017-12-29T02:06:40.609Z,1003.23
2017-12-29T02:08:02.460Z,1003.23
2017-12-29T02:09:24.588Z,1003.27
2017-12-29T02:10:46.264Z,1003.23
2017-12-29T02:12:07.912Z,1003.24
2017-12-29T02:13:29.880Z,1003.33
2017-12-29T02:14:51.473Z,1003.23
2017-12-29T02:16:12.806Z,1003.24
2017-12-29T02:17:34.704Z,1003.19
2017-12-29T02:18:56.056Z,1003.23
2017-12-29T02:20:18.042Z,1003.25
2017-12-29T02:21:40.055Z,1003.32
2017-12-29T02:23:01.645Z,1003.31
2017-12-29T02:24:23.512Z,1003.31
2017-12-29T02:25:45.231Z,1003.34
2017-12-29T02:27:07.095Z,1003.32
2017-12-29T02:28:28.707Z,1003.27
2017-12-29T02:29:50.826Z,1003.25
2017-12-29T02:31:12.935Z,1003.26
2017-12-29T02:32:34.332Z,1003.28
2017-12-29T02:33:56.175Z,1003.22
2017-12-29T02:35:18.055Z,1003.29
2017-12-29T02:36:40.187Z,1003.28
2017-12-29T02:38:02.403Z,1003.34
2017-12-29T02:39:23.735Z,1003.27
2017-12-29T02:40:45.586Z,1003.29
2017-12-29T02:42:07.232Z,1003.36
2017-12-29T02:43:28.854Z,1003.42
2017-12-29T02:44:50.452Z,1003.4
2017-12-29T02:46:11.785Z,1003.44
2017-12-29T02:47:33.926Z,1003.44
2017-12-29T02:48:55.762Z,1003.44
2017-12-29T02:50:17.887Z,1003.4
2017-12-29T02:51:39.727Z,1003.37
2017-12-29T02:53:01.924Z,1003.37
2017-12-29T02:54:23.514Z,1003.4
2017-12-29T02:55:45.621Z,1003.42
2017-12-29T02:57:07.498Z,1003.46
2017-12-29T02:58:29.606Z,1003.45
2017-12-29T02:59:51.176Z,1003.51
2017-12-29T03:01:12.795Z,1003.51
2017-12-29T03:02:34.136Z,1003.52
2017-12-29T03:03:55.715Z,1003.52
2017-12-29T03:05:17.564Z,1003.49
2017-12-29T03:06:39.426Z,1003.46
2017-12-29T03:08:01.385Z,1003.44
2017-12-29T03:09:22.514Z,1003.49
2017-12-29T03:10:44.382Z,1003.53
2017-12-29T03:12:05.978Z,1003.51
2017-12-29T03:13:27.846Z,1003.53
2017-12-29T03:14:49.948Z,1003.54
2017-12-29T03:16:11.542Z,1003.53
2017-12-29T03:17:33.396Z,1003.53
2017-12-29T03:18:55.242Z,1003.57
2017-12-29T03:20:16.906Z,1003.58
2017-12-29T03:21:38.505Z,1003.56
2017-12-29T03:23:00.616Z,1003.59
2017-12-29T03:24:22.606Z,1003.6
2017-12-29T03:25:44.256Z,1003.59
2017-12-29T03:27:05.925Z,1003.67
2017-12-29T03:28:27.765Z,1003.63
2017-12-29T03:29:49.486Z,1003.65
2017-12-29T03:31:11.624Z,1003.6
2017-12-29T03:32:33.214Z,1003.62
2017-12-29T03:33:54.806Z,1003.6
2017-12-29T03:35:17.066Z,1003.59
2017-12-29T03:36:39.356Z,1003.62
2017-12-29T03:38:01.010Z,1003.67
2017-12-29T03:39:22.346Z,1003.66
2017-12-29T03:40:44.456Z,1003.73
2017-12-29T03:42:06.586Z,1003.72
2017-12-29T03:43:28.698Z,1003.69
2017-12-29T03:44:50.564Z,1003.73
2017-12-29T03:46:12.186Z,1003.73
2017-12-29T03:47:34.095Z,1003.77
2017-12-29T03:48:55.686Z,1003.71
2017-12-29T03:50:17.535Z,1003.78
2017-12-29T03:51:39.405Z,1003.75
2017-12-29T03:53:00.997Z,1003.78
2017-12-29T03:54:22.909Z,1003.75
2017-12-29T03:55:44.753Z,1003.75
2017-12-29T03:57:06.604Z,1003.78
2017-12-29T03:58:28.715Z,1003.72
2017-12-29T03:59:50.039Z,1003.76
2017-12-29T04:01:11.897Z,1003.78
2017-12-29T04:02:33.537Z,1003.79
2017-12-29T04:03:55.380Z,1003.82
2017-12-29T04:05:17.345Z,1003.8
2017-12-29T04:06:38.945Z,1003.75
2017-12-29T04:08:00.849Z,1003.82
2017-12-29T04:09:22.474Z,1003.81
2017-12-29T04:10:43.845Z,1003.8
2017-12-29T04:12:05.443Z,1003.8
2017-12-29T04:13:27.294Z,1003.78
2017-12-29T04:14:49.139Z,1003.75
2017-12-29T04:16:10.460Z,1003.71
2017-12-29T04:17:32.095Z,1003.79
2017-12-29T04:18:53.946Z,1003.81
2017-12-29T04:20:15.547Z,1003.83
2017-12-29T04:21:37.467Z,1003.86
2017-12-29T04:22:59.417Z,1003.94
2017-12-29T04:24:21.016Z,1003.89
2017-12-29T04:25:43.140Z,1003.82
2017-12-29T04:27:04.762Z,1003.86
2017-12-29T04:28:26.615Z,1003.89
2017-12-29T04:29:48.464Z,1003.91
2017-12-29T04:31:10.387Z,1003.89
2017-12-29T04:32:32.562Z,1003.94
2017-12-29T04:33:53.674Z,1003.92
2017-12-29T04:35:15.273Z,1003.92
2017-12-29T04:36:36.887Z,1003.97
2017-12-29T04:37:58.545Z,1004
2017-12-29T04:39:20.409Z,1003.95
2017-12-29T04:40:42.292Z,1004.04
2017-12-29T04:42:03.965Z,1004.07
2017-12-29T04:43:26.075Z,1003.99
2017-12-29T04:44:47.485Z,1004.05
2017-12-29T04:46:09.072Z,1004
2017-12-29T04:47:30.926Z,1004.04
2017-12-29T04:48:52.566Z,1004.01
2017-12-29T04:50:14.319Z,1003.98
2017-12-29T04:51:35.927Z,1003.99
2017-12-29T04:52:57.319Z,1004.03
2017-12-29T04:54:18.896Z,1004
2017-12-29T04:55:40.488Z,1004.02
2017-12-29T04:57:02.479Z,1004.03
2017-12-29T04:58:24.387Z,1003.97
2017-12-29T04:59:45.996Z,1003.95
2017-12-29T05:01:08.139Z,1003.9
2017-12-29T05:02:29.726Z,1003.99
2017-12-29T05:03:51.096Z,1003.9
2017-12-29T05:05:12.695Z,1003.91
2017-12-29T05:06:34.985Z,1003.85
2017-12-29T05:07:56.845Z,1003.84
2017-12-29T05:09:18.575Z,1003.8
2017-12-29T05:10:40.467Z,1003.84
2017-12-29T05:12:02.642Z,1003.85
2017-12-29T05:13:24.552Z,1003.88
2017-12-29T05:14:46.106Z,1003.91
2017-12-29T05:16:07.974Z,1003.91
2017-12-29T05:17:29.966Z,1003.93
2017-12-29T05:18:51.814Z,1003.9
2017-12-29T05:20:13.425Z,1003.93
2017-12-29T05:21:35.063Z,1003.99
2017-12-29T05:22:56.924Z,1004.01
2017-12-29T05:24:18.276Z,1003.99
2017-12-29T05:25:39.595Z,1004
2017-12-29T05:27:01.445Z,1004.04
2017-12-29T05:28:22.786Z,1004.03
2017-12-29T05:29:44.386Z,1004.09
2017-12-29T05:31:06.268Z,1004.06
2017-12-29T05:32:27.884Z,1004.06
2017-12-29T05:33:49.234Z,1004.06
2017-12-29T05:35:10.578Z,1004.12
2017-12-29T05:36:32.768Z,1004.17
2017-12-29T05:37:54.364Z,1004.12
2017-12-29T05:39:16.016Z,1004.16
2017-12-29T05:40:37.606Z,1004.14
2017-12-29T05:41:58.997Z,1004.13
2017-12-29T05:43:20.636Z,1004.18
2017-12-29T05:44:41.995Z,1004.21
2017-12-29T05:46:03.825Z,1004.22
2017-12-29T05:47:25.437Z,1004.25
2017-12-29T05:48:47.557Z,1004.3
2017-12-29T05:50:09.133Z,1004.28
2017-12-29T05:51:30.516Z,1004.28
2017-12-29T05:52:51.858Z,1004.28
2017-12-29T05:54:13.495Z,1004.25
2017-12-29T05:55:35.073Z,1004.24
2017-12-29T05:56:55.881Z,1004.26
2017-12-29T05:58:17.575Z,1004.27
2017-12-29T05:59:38.759Z,1004.28
2017-12-29T06:01:00.366Z,1004.25
2017-12-29T06:02:22.236Z,1004.34
2017-12-29T06:03:43.814Z,1004.3
2017-12-29T06:05:05.608Z,1004.23
2017-12-29T06:06:27.186Z,1004.26
2017-12-29T06:07:49.098Z,1004.25
2017-12-29T06:09:10.943Z,1004.23
2017-12-29T06:10:32.925Z,1004.2
2017-12-29T06:11:55.036Z,1004.21
2017-12-29T06:13:16.659Z,1004.27
2017-12-29T06:14:38.783Z,1004.32
2017-12-29T06:16:00.375Z,1004.27
2017-12-29T06:17:22.215Z,1004.31
2017-12-29T06:18:43.796Z,1004.3
2017-12-29T06:20:05.157Z,1004.32
2017-12-29T06:21:26.796Z,1004.31
2017-12-29T06:22:48.442Z,1004.36
2017-12-29T06:24:10.053Z,1004.45
2017-12-29T06:25:31.115Z,1004.46
2017-12-29T06:26:52.442Z,1004.53
2017-12-29T06:28:14.587Z,1004.5
2017-12-29T06:29:36.544Z,1004.53
2017-12-29T06:30:58.123Z,1004.54
2017-12-29T06:32:20.134Z,1004.56
2017-12-29T06:33:41.964Z,1004.56
2017-12-29T06:35:03.751Z,1004.58
2017-12-29T06:36:25.709Z,1004.66
2017-12-29T06:37:48.001Z,1004.65
2017-12-29T06:39:10.216Z,1004.7
2017-12-29T06:40:32.073Z,1004.7
2017-12-29T06:41:53.912Z,1004.74
2017-12-29T06:43:14.984Z,1004.78
2017-12-29T06:44:36.697Z,1004.76
2017-12-29T06:45:58.694Z,1004.79
2017-12-29T06:47:20.635Z,1004.81
2017-12-29T06:48:42.852Z,1004.84
2017-12-29T06:50:04.441Z,1004.84
2017-12-29T06:51:26.153Z,1004.85
2017-12-29T06:52:48.120Z,1004.87
2017-12-29T06:54:09.971Z,1004.89
2017-12-29T06:55:31.293Z,1004.9
2017-12-29T06:56:53.162Z,1004.91
2017-12-29T06:58:14.236Z,1004.86
2017-12-29T06:59:36.341Z,1004.95
2017-12-29T07:00:58.215Z,1004.94
2017-12-29T07:02:20.156Z,1004.98
2017-12-29T07:03:41.734Z,1004.99
2017-12-29T07:05:03.613Z,1005
2017-12-29T07:06:25.007Z,1005.02
2017-12-29T07:07:47.097Z,1005.04
2017-12-29T07:09:08.704Z,1005.04
2017-12-29T07:10:30.301Z,1005.04
2017-12-29T07:11:51.894Z,1005.03
2017-12-29T07:13:13.732Z,1005.03
2017-12-29T07:14:35.047Z,1005.07
2017-12-29T07:15:56.902Z,1005.1
2017-12-29T07:17:18.843Z,1005.09
2017-12-29T07:18:40.739Z,1005.09
2017-12-29T07:20:02.423Z,1005.09
2017-12-29T07:21:24.026Z,1005.12
2017-12-29T07:22:46.231Z,1005.15
2017-12-29T07:24:08.330Z,1005.17
2017-12-29T07:25:30.171Z,1005.27
2017-12-29T07:26:51.495Z,1005.24
2017-12-29T07:28:13.098Z,1005.28
2017-12-29T07:29:34.701Z,1005.34
2017-12-29T07:30:56.063Z,1005.3
2017-12-29T07:32:17.944Z,1005.35
2017-12-29T07:33:39.813Z,1005.39
2017-12-29T07:35:01.945Z,1005.39
2017-12-29T07:36:23.915Z,1005.48
2017-12-29T07:37:45.777Z,1005.43
2017-12-29T07:39:07.642Z,1005.42
2017-12-29T07:40:29.526Z,1005.49
2017-12-29T07:41:51.632Z,1005.51
2017-12-29T07:43:13.765Z,1005.53
2017-12-29T07:44:35.893Z,1005.55
2017-12-29T07:45:57.498Z,1005.56
2017-12-29T07:47:19.144Z,1005.54
2017-12-29T07:48:41.273Z,1005.61
2017-12-29T07:50:03.115Z,1005.58
2017-12-29T07:51:24.706Z,1005.58
2017-12-29T07:52:46.634Z,1005.72
2017-12-29T07:54:08.763Z,1005.71
2017-12-29T07:55:30.408Z,1005.68
2017-12-29T07:56:52.373Z,1005.7
2017-12-29T07:58:14.219Z,1005.65
2017-12-29T07:59:35.912Z,1005.65
2017-12-29T08:00:57.646Z,1005.64
2017-12-29T08:02:19.004Z,1005.61
2017-12-29T08:03:41.004Z,1005.58
2017-12-29T08:05:02.893Z,1005.56
2017-12-29T08:06:24.563Z,1005.5
2017-12-29T08:07:46.704Z,1005.52
2017-12-29T08:09:08.568Z,1005.47
2017-12-29T08:10:30.473Z,1005.48
2017-12-29T08:11:52.629Z,1005.55
2017-12-29T08:13:14.014Z,1005.5
2017-12-29T08:14:35.618Z,1005.51
2017-12-29T08:15:56.691Z,1005.49
2017-12-29T08:17:18.633Z,1005.51
2017-12-29T08:18:40.584Z,1005.51
2017-12-29T08:20:01.919Z,1005.48
2017-12-29T08:21:23.784Z,1005.48
2017-12-29T08:22:45.670Z,1005.5
2017-12-29T08:24:07.581Z,1005.49
2017-12-29T08:25:29.191Z,1005.53
2017-12-29T08:26:51.033Z,1005.53
2017-12-29T08:28:14.224Z,1005.52
2017-12-29T08:29:36.184Z,1005.54
2017-12-29T08:30:57.506Z,1005.56
2017-12-29T08:32:19.196Z,1005.59
2017-12-29T08:33:41.323Z,1005.64
2017-12-29T08:35:03.521Z,1005.66
2017-12-29T08:36:25.697Z,1005.66
2017-12-29T08:37:47.553Z,1005.69
2017-12-29T08:39:09.151Z,1005.66
2017-12-29T08:40:31.013Z,1005.63
2017-12-29T08:41:52.604Z,1005.67
2017-12-29T08:43:14.498Z,1005.64
2017-12-29T08:44:36.374Z,1005.61
2017-12-29T08:45:57.984Z,1005.67
2017-12-29T08:47:19.891Z,1005.68
2017-12-29T08:48:41.777Z,1005.64
2017-12-29T08:50:03.923Z,1005.6
2017-12-29T08:51:26.101Z,1005.61
2017-12-29T08:52:48.235Z,1005.63
2017-12-29T08:54:10.409Z,1005.57
2017-12-29T08:55:32.583Z,1005.57
2017-12-29T08:56:54.274Z,1005.58
2017-12-29T08:58:16.374Z,1005.59
2017-12-29T08:59:38.518Z,1005.65
2017-12-29T09:01:00.378Z,1005.59
2017-12-29T09:02:21.545Z,1005.62
2017-12-29T09:03:43.169Z,1005.64
2017-12-29T09:05:05.090Z,1005.61
2017-12-29T09:06:26.683Z,1005.57
2017-12-29T09:07:48.275Z,1005.55
2017-12-29T09:09:10.240Z,1005.52
2017-12-29T09:10:32.403Z,1005.51
2017-12-29T09:11:54.263Z,1005.48
2017-12-29T09:13:15.891Z,1005.51
2017-12-29T09:14:38.133Z,1005.44
2017-12-29T09:16:00.021Z,1005.47
2017-12-29T09:17:22.223Z,1005.51
2017-12-29T09:18:44.127Z,1005.5
2017-12-29T09:20:06.034Z,1005.54
2017-12-29T09:21:28.152Z,1005.47
2017-12-29T09:22:50.282Z,1005.53
2017-12-29T09:24:12.387Z,1005.57
2017-12-29T09:25:33.738Z,1005.49
2017-12-29T09:26:55.536Z,1005.51
2017-12-29T09:28:17.416Z,1005.53
2017-12-29T09:29:38.752Z,1005.51
2017-12-29T09:31:00.354Z,1005.52
2017-12-29T09:32:21.955Z,1005.52
2017-12-29T09:33:43.874Z,1005.51
2017-12-29T09:35:05.996Z,1005.49
2017-12-29T09:36:27.909Z,1005.53
2017-12-29T09:37:49.947Z,1005.5
2017-12-29T09:39:11.804Z,1005.48
2017-12-29T09:40:33.932Z,1005.45
2017-12-29T09:41:55.531Z,1005.43
2017-12-29T09:43:17.409Z,1005.4
2017-12-29T09:44:39.444Z,1005.41
2017-12-29T09:46:01.303Z,1005.42
2017-12-29T09:47:23.226Z,1005.45
2017-12-29T09:48:45.074Z,1005.38
2017-12-29T09:50:06.672Z,1005.4
2017-12-29T09:51:28.896Z,1005.41
2017-12-29T09:52:50.994Z,1005.42
2017-12-29T09:54:12.335Z,1005.41
2017-12-29T09:55:34.233Z,1005.41
2017-12-29T09:56:55.833Z,1005.37
2017-12-29T09:58:17.684Z,1005.39
2017-12-29T09:59:39.573Z,1005.35
2017-12-29T10:01:01.198Z,1005.35
2017-12-29T10:02:22.534Z,1005.33
2017-12-29T10:03:44.399Z,1005.35
2017-12-29T10:05:05.717Z,1005.38
2017-12-29T10:06:27.609Z,1005.34
2017-12-29T10:07:49.794Z,1005.35
2017-12-29T10:09:11.434Z,1005.41
2017-12-29T10:10:33.275Z,1005.32
2017-12-29T10:11:54.886Z,1005.32
2017-12-29T10:13:16.475Z,1005.28
2017-12-29T10:14:38.594Z,1005.31
2017-12-29T10:16:00.206Z,1005.31
2017-12-29T10:17:22.064Z,1005.27
2017-12-29T10:18:43.829Z,1005.24
2017-12-29T10:20:05.958Z,1005.2
2017-12-29T10:21:27.275Z,1005.18
2017-12-29T10:22:49.127Z,1005.15
2017-12-29T10:24:11.254Z,1005.1
2017-12-29T10:25:32.915Z,1005.07
2017-12-29T10:26:54.566Z,1005.08
2017-12-29T10:28:16.164Z,1005.03
2017-12-29T10:29:37.808Z,1005.02
2017-12-29T10:30:59.554Z,1005.08
2017-12-29T10:32:21.240Z,1005
2017-12-29T10:33:43.134Z,1005.07
2017-12-29T10:35:06.020Z,1005.04
2017-12-29T10:36:28.146Z,1005.12
2017-12-29T10:37:49.745Z,1005.02
2017-12-29T10:39:11.366Z,1005.01
2017-12-29T10:40:33.569Z,1005.06
2017-12-29T10:41:55.734Z,1005.03
2017-12-29T10:43:17.624Z,1005.03
2017-12-29T10:44:39.555Z,1005.04
2017-12-29T10:46:00.641Z,1005
2017-12-29T10:47:22.777Z,1005.03
2017-12-29T10:48:45.007Z,1005.03
2017-12-29T10:50:07.203Z,1005.11
2017-12-29T10:51:28.826Z,1005.07
2017-12-29T10:52:50.430Z,1005.09
2017-12-29T10:54:12.543Z,1005.05
2017-12-29T10:55:34.625Z,1005.07
2017-12-29T10:56:56.754Z,1005.06
2017-12-29T10:58:18.867Z,1005.02
2017-12-29T10:59:40.719Z,1005.04
2017-12-29T11:01:02.337Z,1004.94
2017-12-29T11:02:24.574Z,1004.96
2017-12-29T11:03:46.736Z,1004.95
2017-12-29T11:05:08.585Z,1004.96
2017-12-29T11:06:30.485Z,1004.91
2017-12-29T11:07:52.626Z,1004.89
2017-12-29T11:09:14.506Z,1004.88
2017-12-29T11:10:36.385Z,1004.84
2017-12-29T11:11:58.535Z,1004.83
2017-12-29T11:13:20.573Z,1004.78
2017-12-29T11:14:42.453Z,1004.79
2017-12-29T11:16:04.055Z,1004.71
2017-12-29T11:17:25.654Z,1004.68
2017-12-29T11:18:47.786Z,1004.68
2017-12-29T11:20:09.707Z,1004.67
2017-12-29T11:21:31.712Z,1004.73
2017-12-29T11:22:53.885Z,1004.72
2017-12-29T11:24:15.998Z,1004.72
2017-12-29T11:25:37.863Z,1004.74
2017-12-29T11:27:00.175Z,1004.72
2017-12-29T11:28:21.513Z,1004.77
2017-12-29T11:29:43.736Z,1004.79
2017-12-29T11:31:06.015Z,1004.75
2017-12-29T11:32:28.154Z,1004.75
2017-12-29T11:33:50.007Z,1004.77
2017-12-29T11:35:12.185Z,1004.66
2017-12-29T11:36:34.064Z,1004.66
2017-12-29T11:37:55.492Z,1004.68
2017-12-29T11:39:17.444Z,1004.65
2017-12-29T11:40:39.364Z,1004.59
2017-12-29T11:42:00.988Z,1004.57
2017-12-29T11:43:22.456Z,1004.57
2017-12-29T11:44:44.312Z,1004.51
2017-12-29T11:46:05.793Z,1004.55
2017-12-29T11:47:27.944Z,1004.53
2017-12-29T11:48:50.066Z,1004.49
2017-12-29T11:50:12.008Z,1004.46
2017-12-29T11:51:33.605Z,1004.48
2017-12-29T11:52:55.499Z,1004.44
2017-12-29T11:54:17.626Z,1004.44
2017-12-29T11:55:39.493Z,1004.4
2017-12-29T11:57:01.123Z,1004.44
2017-12-29T11:58:23.277Z,1004.43
2017-12-29T11:59:45.152Z,1004.43
2017-12-29T12:01:06.777Z,1004.4
2017-12-29T12:02:29.324Z,1004.36
2017-12-29T12:03:51.044Z,1004.36
2017-12-29T12:05:13.195Z,1004.31
2017-12-29T12:06:35.324Z,1004.33
2017-12-29T12:07:56.694Z,1004.31
2017-12-29T12:09:19.125Z,1004.28
2017-12-29T12:10:41.273Z,1004.23
2017-12-29T12:12:03.468Z,1004.22
2017-12-29T12:13:24.826Z,1004.24
2017-12-29T12:14:46.435Z,1004.2
2017-12-29T12:16:08.602Z,1004.18
2017-12-29T12:17:30.282Z,1004.15
2017-12-29T12:18:52.391Z,1004.06
2017-12-29T12:20:13.995Z,1004.08
2017-12-29T12:21:35.932Z,1004.03
2017-12-29T12:22:58.103Z,1004
2017-12-29T12:24:20.286Z,1004.04
2017-12-29T12:25:42.401Z,1004.06
2017-12-29T12:27:04.295Z,1004.08
2017-12-29T12:28:26.163Z,1004.08
2017-12-29T12:29:48.293Z,1004.07
2017-12-29T12:31:09.633Z,1004.11
2017-12-29T12:32:31.694Z,1004.14
2017-12-29T12:33:53.813Z,1004.07
2017-12-29T12:35:15.686Z,1004.08
2017-12-29T12:36:37.823Z,1004.04
2017-12-29T12:37:59.448Z,1004.06
2017-12-29T12:39:21.335Z,1004.04
2017-12-29T12:40:43.443Z,1004.07
2017-12-29T12:42:05.060Z,1004.04
2017-12-29T12:43:26.919Z,1003.96
2017-12-29T12:44:48.513Z,1003.94
2017-12-29T12:46:10.129Z,1003.9
2017-12-29T12:47:31.724Z,1003.9
2017-12-29T12:48:53.331Z,1003.87
2017-12-29T12:50:15.335Z,1003.88
2017-12-29T12:51:37.195Z,1003.85
2017-12-29T12:52:58.797Z,1003.77
2017-12-29T12:54:21.024Z,1003.77
2017-12-29T12:55:42.655Z,1003.64
2017-12-29T12:57:04.848Z,1003.58
2017-12-29T12:58:26.984Z,1003.68
2017-12-29T12:59:49.125Z,1003.64
2017-12-29T13:01:10.744Z,1003.58
2017-12-29T13:02:32.654Z,1003.58
2017-12-29T13:03:53.728Z,1003.51
2017-12-29T13:05:15.583Z,1003.51
2017-12-29T13:06:37.175Z,1003.48
2017-12-29T13:07:59.341Z,1003.43
2017-12-29T13:09:21.223Z,1003.36
2017-12-29T13:10:42.564Z,1003.43
2017-12-29T13:12:04.206Z,1003.37
2017-12-29T13:13:26.126Z,1003.32
2017-12-29T13:14:47.994Z,1003.36
2017-12-29T13:16:10.317Z,1003.4
2017-12-29T13:17:32.316Z,1003.32
2017-12-29T13:18:54.014Z,1003.28
2017-12-29T13:20:15.958Z,1003.27
2017-12-29T13:21:38.259Z,1003.27
2017-12-29T13:23:00.334Z,1003.29
2017-12-29T13:24:22.203Z,1003.23
2017-12-29T13:25:43.874Z,1003.19
2017-12-29T13:27:06.174Z,1003.2
2017-12-29T13:28:28.058Z,1003.16
2017-12-29T13:29:50.070Z,1003.2
2017-12-29T13:31:12.215Z,1003.15
2017-12-29T13:32:34.102Z,1003.22
2017-12-29T13:33:55.955Z,1003.23
2017-12-29T13:36:54.643Z,1003.21
2017-12-29T13:38:16.681Z,1003.2
2017-12-29T13:39:38.803Z,1003.14
2017-12-29T13:41:00.984Z,1003.17
2017-12-29T13:42:22.993Z,1003.15
2017-12-29T13:43:44.865Z,1003.13
2017-12-29T13:45:06.784Z,1003.06
2017-12-29T13:46:28.954Z,1003.07
2017-12-29T13:47:51.058Z,1003.06
2017-12-29T13:49:12.667Z,1002.99
2017-12-29T13:50:34.352Z,1002.99
2017-12-29T13:51:56.318Z,1002.94
2017-12-29T13:53:18.471Z,1002.95
2017-12-29T13:54:40.573Z,1002.92
2017-12-29T13:56:02.288Z,1002.9
2017-12-29T13:57:24.504Z,1002.85
2017-12-29T13:58:46.203Z,1002.79
2017-12-29T14:00:07.870Z,1002.79
2017-12-29T14:01:30.034Z,1002.75
2017-12-29T14:02:51.970Z,1002.79
2017-12-29T14:04:13.927Z,1002.69
2017-12-29T14:05:36.187Z,1002.72
2017-12-29T14:06:58.376Z,1002.61
2017-12-29T14:08:20.541Z,1002.67
2017-12-29T14:09:42.424Z,1002.62
2017-12-29T14:11:04.278Z,1002.53
2017-12-29T14:12:25.893Z,1002.53
2017-12-29T14:13:48.046Z,1002.52
2017-12-29T14:15:10.183Z,1002.48
2017-12-29T14:16:32.329Z,1002.43
2017-12-29T14:17:54.363Z,1002.36
2017-12-29T14:19:16.491Z,1002.36
2017-12-29T14:20:38.385Z,1002.34
2017-12-29T14:22:00.242Z,1002.3
2017-12-29T14:23:22.125Z,1002.33
2017-12-29T14:24:43.769Z,1002.31
2017-12-29T14:26:05.109Z,1002.27
2017-12-29T14:27:26.991Z,1002.25
2017-12-29T14:28:49.205Z,1002.28
2017-12-29T14:30:11.332Z,1002.24
2017-12-29T14:31:32.674Z,1002.24
2017-12-29T14:32:54.557Z,1002.25
2017-12-29T14:34:15.638Z,1002.23
2017-12-29T14:35:37.323Z,1002.23
2017-12-29T14:36:59.504Z,1002.23
2017-12-29T14:38:21.738Z,1002.1
2017-12-29T14:39:43.911Z,1002.06
2017-12-29T14:41:06.083Z,1002.06
2017-12-29T14:42:27.685Z,1002.07
2017-12-29T14:43:49.033Z,1002.05
2017-12-29T14:45:10.635Z,1001.98
2017-12-29T14:46:32.893Z,1001.95
2017-12-29T14:47:54.778Z,1001.97
2017-12-29T14:49:16.102Z,1001.9
2017-12-29T14:50:38.299Z,1001.85
2017-12-29T14:52:00.432Z,1001.8
2017-12-29T14:53:22.298Z,1001.8
2017-12-29T14:54:44.474Z,1001.75
2017-12-29T14:56:06.362Z,1001.72
2017-12-29T14:57:28.530Z,1001.76
2017-12-29T14:58:49.867Z,1001.77
2017-12-29T15:00:11.736Z,1001.77
2017-12-29T15:01:33.658Z,1001.79
2017-12-29T15:02:55.532Z,1001.68
2017-12-29T15:04:17.691Z,1001.69
2017-12-29T15:05:39.598Z,1001.69
2017-12-29T15:07:01.724Z,1001.68
2017-12-29T15:08:23.637Z,1001.62
2017-12-29T15:09:45.803Z,1001.57
2017-12-29T15:11:07.950Z,1001.62
2017-12-29T15:12:30.073Z,1001.66
2017-12-29T15:13:51.693Z,1001.63
2017-12-29T15:15:13.872Z,1001.66
2017-12-29T15:16:35.743Z,1001.6
2017-12-29T15:17:57.620Z,1001.56
2017-12-29T15:19:19.753Z,1001.53
2017-12-29T15:20:41.684Z,1001.47
2017-12-29T15:22:03.297Z,1001.4
2017-12-29T15:23:25.239Z,1001.31
2017-12-29T15:24:46.905Z,1001.29
2017-12-29T15:26:09.162Z,1001.24
2017-12-29T15:27:31.417Z,1001.23
2017-12-29T15:28:53.304Z,1001.19
2017-12-29T15:30:14.909Z,1001.18
2017-12-29T15:31:36.587Z,1001.13
2017-12-29T15:32:58.737Z,1001.12
2017-12-29T15:34:20.677Z,1001.13
2017-12-29T15:35:42.644Z,1001.11
2017-12-29T15:37:04.315Z,1001.11
2017-12-29T15:38:26.479Z,1001.09
2017-12-29T15:39:48.405Z,1001.04
2017-12-29T15:41:10.843Z,1001.02
2017-12-29T15:42:32.465Z,1001.01
2017-12-29T15:43:54.701Z,1000.98
2017-12-29T15:45:16.397Z,1000.93
2017-12-29T15:46:38.272Z,1000.93
2017-12-29T15:47:59.901Z,1000.89
2017-12-29T15:49:21.797Z,1000.86
2017-12-29T15:50:43.675Z,1000.81
2017-12-29T15:52:05.612Z,1000.76
2017-12-29T15:53:27.272Z,1000.82
2017-12-29T15:54:49.225Z,1000.82
2017-12-29T15:56:11.153Z,1000.79
2017-12-29T15:57:33.305Z,1000.73
2017-12-29T15:58:55.286Z,1000.76
2017-12-29T16:00:17.433Z,1000.69
2017-12-29T16:01:39.306Z,1000.66
2017-12-29T16:03:01.194Z,1000.71
2017-12-29T16:04:22.914Z,1000.68
2017-12-29T16:05:45.093Z,1000.64
2017-12-29T16:07:07.007Z,1000.65
2017-12-29T16:08:28.638Z,1000.6
2017-12-29T16:09:50.540Z,1000.64
2017-12-29T16:11:12.504Z,1000.59
2017-12-29T16:12:34.747Z,1000.6
2017-12-29T16:13:56.914Z,1000.59
2017-12-29T16:15:19.330Z,1000.57
2017-12-29T16:16:41.467Z,1000.54
2017-12-29T16:18:03.163Z,1000.54
2017-12-29T16:19:25.093Z,1000.51
2017-12-29T16:20:47.055Z,1000.52
2017-12-29T16:22:08.666Z,1000.5
2017-12-29T16:23:30.853Z,1000.49
2017-12-29T16:24:52.605Z,1000.5
2017-12-29T16:26:14.279Z,1000.5
2017-12-29T16:27:36.542Z,1000.5
2017-12-29T16:28:58.185Z,1000.5
2017-12-29T16:30:20.343Z,1000.53
2017-12-29T16:31:42.213Z,1000.46
2017-12-29T16:33:04.083Z,1000.43
2017-12-29T16:34:25.706Z,1000.46
2017-12-29T16:35:47.846Z,1000.47